sensor_id;sensor_type;location;lat;lon;timestamp;P1;durP1;ratioP1;P2;durP2;ratioP2
25615;SDS011;13482;48.234;13.006;2022-10-04T00:01:10;2.45;;;1.40;;
25615;SDS011;13482;48.234;13.006;2022-10-04T00:03:43;2.30;;;1.30;;
25615;SDS011;13482;48.234;13.006;2022-10-04T00:06:19;2.80;;;1.52;;
25615;SDS011;13482;48.234;13.006;2022-10-04T00:08:51;3.15;;;1.67;;
25615;SDS011;13482;48.234;13.006;2022-10-04T00:11:35;2.83;;;1.48;;
25615;SDS011;13482;48.234;13.006;2022-10-04T00:14:19;4.53;;;1.77;;
25615;SDS011;13482;48.234;13.006;2022-10-04T00:16:53;2.88;;;1.70;;
25615;SDS011;13482;48.234;13.006;2022-10-04T00:19:23;3.33;;;1.90;;
25615;SDS011;13482;48.234;13.006;2022-10-04T00:22:16;3.42;;;1.83;;
25615;SDS011;13482;48.234;13.006;2022-10-04T00:25:00;3.17;;;1.80;;
25615;SDS011;13482;48.234;13.006;2022-10-04T00:27:35;3.38;;;2.10;;
25615;SDS011;13482;48.234;13.006;2022-10-04T00:35:51;3.58;;;2.22;;
25615;SDS011;13482;48.234;13.006;2022-10-04T00:41:03;4.45;;;2.05;;
25615;SDS011;13482;48.234;13.006;2022-10-04T00:43:41;3.20;;;1.80;;
25615;SDS011;13482;48.234;13.006;2022-10-04T00:46:17;2.22;;;1.65;;
25615;SDS011;13482;48.234;13.006;2022-10-04T00:48:51;3.08;;;1.85;;
25615;SDS011;13482;48.234;13.006;2022-10-04T00:51:31;2.65;;;2.00;;
25615;SDS011;13482;48.234;13.006;2022-10-04T00:54:19;2.30;;;1.58;;
25615;SDS011;13482;48.234;13.006;2022-10-04T00:57:02;2.85;;;1.88;;
25615;SDS011;13482;48.234;13.006;2022-10-04T01:02:16;3.15;;;1.88;;
25615;SDS011;13482;48.234;13.006;2022-10-04T01:07:48;2.70;;;1.83;;
25615;SDS011;13482;48.234;13.006;2022-10-04T01:10:29;3.38;;;1.73;;
25615;SDS011;13482;48.234;13.006;2022-10-04T01:18:40;2.67;;;1.63;;
25615;SDS011;13482;48.234;13.006;2022-10-04T01:31:47;2.38;;;1.58;;
25615;SDS011;13482;48.234;13.006;2022-10-04T01:34:17;2.40;;;1.65;;
25615;SDS011;13482;48.234;13.006;2022-10-04T01:36:50;1.95;;;1.45;;
25615;SDS011;13482;48.234;13.006;2022-10-04T01:39:23;2.53;;;1.65;;
25615;SDS011;13482;48.234;13.006;2022-10-04T01:44:38;1.98;;;1.33;;
25615;SDS011;13482;48.234;13.006;2022-10-04T01:47:16;2.67;;;1.48;;
25615;SDS011;13482;48.234;13.006;2022-10-04T01:49:52;2.42;;;1.58;;
25615;SDS011;13482;48.234;13.006;2022-10-04T01:52:29;2.70;;;1.50;;
25615;SDS011;13482;48.234;13.006;2022-10-04T01:55:11;1.90;;;1.10;;
25615;SDS011;13482;48.234;13.006;2022-10-04T01:57:56;4.10;;;1.15;;
25615;SDS011;13482;48.234;13.006;2022-10-04T02:00:43;1.88;;;1.05;;
25615;SDS011;13482;48.234;13.006;2022-10-04T02:03:28;1.67;;;1.23;;
25615;SDS011;13482;48.234;13.006;2022-10-04T02:06:11;2.25;;;1.33;;
25615;SDS011;13482;48.234;13.006;2022-10-04T02:08:44;1.55;;;1.08;;
25615;SDS011;13482;48.234;13.006;2022-10-04T02:11:16;1.15;;;0.85;;
25615;SDS011;13482;48.234;13.006;2022-10-04T02:13:46;2.15;;;1.25;;
25615;SDS011;13482;48.234;13.006;2022-10-04T02:16:17;1.75;;;1.15;;
25615;SDS011;13482;48.234;13.006;2022-10-04T02:18:47;2.65;;;1.60;;
25615;SDS011;13482;48.234;13.006;2022-10-04T02:21:16;2.92;;;1.60;;
25615;SDS011;13482;48.234;13.006;2022-10-04T02:23:45;2.28;;;1.42;;
25615;SDS011;13482;48.234;13.006;2022-10-04T02:26:13;2.20;;;1.58;;
25615;SDS011;13482;48.234;13.006;2022-10-04T02:28:40;2.17;;;1.42;;
25615;SDS011;13482;48.234;13.006;2022-10-04T02:31:07;2.33;;;1.50;;
25615;SDS011;13482;48.234;13.006;2022-10-04T02:33:55;1.85;;;1.27;;
25615;SDS011;13482;48.234;13.006;2022-10-04T02:36:25;2.00;;;1.33;;
25615;SDS011;13482;48.234;13.006;2022-10-04T02:39:01;2.95;;;1.48;;
25615;SDS011;13482;48.234;13.006;2022-10-04T02:49:57;2.97;;;1.40;;
25615;SDS011;13482;48.234;13.006;2022-10-04T02:53:11;1.48;;;1.10;;
25615;SDS011;13482;48.234;13.006;2022-10-04T02:55:57;1.30;;;0.90;;
25615;SDS011;13482;48.234;13.006;2022-10-04T02:58:27;1.80;;;1.25;;
25615;SDS011;13482;48.234;13.006;2022-10-04T03:00:58;1.60;;;1.17;;
25615;SDS011;13482;48.234;13.006;2022-10-04T03:03:28;1.73;;;1.10;;
25615;SDS011;13482;48.234;13.006;2022-10-04T03:06:07;1.38;;;1.02;;
25615;SDS011;13482;48.234;13.006;2022-10-04T03:08:46;2.58;;;1.33;;
25615;SDS011;13482;48.234;13.006;2022-10-04T03:11:26;1.75;;;1.25;;
25615;SDS011;13482;48.234;13.006;2022-10-04T03:13:57;2.42;;;1.10;;
25615;SDS011;13482;48.234;13.006;2022-10-04T03:16:32;1.60;;;1.10;;
25615;SDS011;13482;48.234;13.006;2022-10-04T03:19:06;2.35;;;1.23;;
25615;SDS011;13482;48.234;13.006;2022-10-04T03:21:34;1.60;;;1.13;;
25615;SDS011;13482;48.234;13.006;2022-10-04T03:24:05;1.50;;;1.10;;
25615;SDS011;13482;48.234;13.006;2022-10-04T03:26:38;2.08;;;1.25;;
25615;SDS011;13482;48.234;13.006;2022-10-04T03:29:16;1.98;;;1.10;;
25615;SDS011;13482;48.234;13.006;2022-10-04T03:31:45;1.30;;;1.00;;
25615;SDS011;13482;48.234;13.006;2022-10-04T03:34:20;4.18;;;1.13;;
25615;SDS011;13482;48.234;13.006;2022-10-04T03:36:52;3.92;;;1.20;;
25615;SDS011;13482;48.234;13.006;2022-10-04T03:39:29;2.50;;;1.33;;
25615;SDS011;13482;48.234;13.006;2022-10-04T03:42:18;1.45;;;1.10;;
25615;SDS011;13482;48.234;13.006;2022-10-04T03:44:50;1.48;;;1.00;;
25615;SDS011;13482;48.234;13.006;2022-10-04T03:47:34;1.50;;;1.08;;
25615;SDS011;13482;48.234;13.006;2022-10-04T03:50:11;1.50;;;0.90;;
25615;SDS011;13482;48.234;13.006;2022-10-04T03:52:55;1.40;;;0.98;;
25615;SDS011;13482;48.234;13.006;2022-10-04T03:55:33;1.45;;;1.05;;
25615;SDS011;13482;48.234;13.006;2022-10-04T03:58:12;1.48;;;0.98;;
25615;SDS011;13482;48.234;13.006;2022-10-04T04:00:43;1.17;;;0.93;;
25615;SDS011;13482;48.234;13.006;2022-10-04T04:03:45;0.98;;;0.70;;
25615;SDS011;13482;48.234;13.006;2022-10-04T04:06:40;2.15;;;0.90;;
25615;SDS011;13482;48.234;13.006;2022-10-04T04:09:36;1.85;;;0.88;;
25615;SDS011;13482;48.234;13.006;2022-10-04T04:12:38;0.85;;;0.68;;
25615;SDS011;13482;48.234;13.006;2022-10-04T04:15:09;1.17;;;0.80;;
25615;SDS011;13482;48.234;13.006;2022-10-04T04:17:40;1.10;;;0.85;;
25615;SDS011;13482;48.234;13.006;2022-10-04T04:20:33;1.30;;;1.00;;
25615;SDS011;13482;48.234;13.006;2022-10-04T04:23:04;1.33;;;0.98;;
25615;SDS011;13482;48.234;13.006;2022-10-04T04:28:52;3.25;;;1.00;;
25615;SDS011;13482;48.234;13.006;2022-10-04T04:32:07;1.48;;;0.95;;
25615;SDS011;13482;48.234;13.006;2022-10-04T04:34:57;1.40;;;1.00;;
25615;SDS011;13482;48.234;13.006;2022-10-04T04:37:35;1.48;;;1.00;;
25615;SDS011;13482;48.234;13.006;2022-10-04T04:42:49;1.35;;;0.80;;
25615;SDS011;13482;48.234;13.006;2022-10-04T04:45:18;1.90;;;1.00;;
25615;SDS011;13482;48.234;13.006;2022-10-04T04:47:51;1.50;;;0.90;;
25615;SDS011;13482;48.234;13.006;2022-10-04T04:50:23;1.40;;;0.88;;
25615;SDS011;13482;48.234;13.006;2022-10-04T04:53:22;2.10;;;0.93;;
25615;SDS011;13482;48.234;13.006;2022-10-04T04:55:55;2.13;;;1.23;;
25615;SDS011;13482;48.234;13.006;2022-10-04T04:58:36;1.30;;;0.93;;
25615;SDS011;13482;48.234;13.006;2022-10-04T05:01:14;2.03;;;1.42;;
25615;SDS011;13482;48.234;13.006;2022-10-04T05:04:03;3.70;;;1.80;;
25615;SDS011;13482;48.234;13.006;2022-10-04T05:06:42;2.10;;;1.30;;
25615;SDS011;13482;48.234;13.006;2022-10-04T05:11:48;1.75;;;1.30;;
25615;SDS011;13482;48.234;13.006;2022-10-04T05:14:18;10.90;;;1.80;;
25615;SDS011;13482;48.234;13.006;2022-10-04T05:16:52;4.78;;;1.52;;
25615;SDS011;13482;48.234;13.006;2022-10-04T05:19:22;3.10;;;1.48;;
25615;SDS011;13482;48.234;13.006;2022-10-04T05:22:08;6.25;;;2.60;;
25615;SDS011;13482;48.234;13.006;2022-10-04T05:24:39;2.25;;;1.55;;
25615;SDS011;13482;48.234;13.006;2022-10-04T05:27:17;3.45;;;1.30;;
25615;SDS011;13482;48.234;13.006;2022-10-04T05:32:59;13.55;;;1.50;;
25615;SDS011;13482;48.234;13.006;2022-10-04T05:35:28;1.55;;;1.10;;
25615;SDS011;13482;48.234;13.006;2022-10-04T05:44:43;6.13;;;1.40;;
25615;SDS011;13482;48.234;13.006;2022-10-04T05:47:18;2.70;;;1.33;;
25615;SDS011;13482;48.234;13.006;2022-10-04T06:00:49;10.02;;;1.98;;
25615;SDS011;13482;48.234;13.006;2022-10-04T06:03:35;3.30;;;1.45;;
25615;SDS011;13482;48.234;13.006;2022-10-04T06:06:49;2.47;;;1.65;;
25615;SDS011;13482;48.234;13.006;2022-10-04T06:23:28;3.60;;;1.52;;
25615;SDS011;13482;48.234;13.006;2022-10-04T06:26:09;2.45;;;1.50;;
25615;SDS011;13482;48.234;13.006;2022-10-04T06:28:41;1.70;;;1.43;;
25615;SDS011;13482;48.234;13.006;2022-10-04T06:39:56;2.47;;;1.60;;
25615;SDS011;13482;48.234;13.006;2022-10-04T06:42:48;3.28;;;1.95;;
25615;SDS011;13482;48.234;13.006;2022-10-04T06:45:42;3.20;;;1.65;;
25615;SDS011;13482;48.234;13.006;2022-10-04T06:57:38;2.83;;;1.77;;
25615;SDS011;13482;48.234;13.006;2022-10-04T07:00:28;3.13;;;1.90;;
25615;SDS011;13482;48.234;13.006;2022-10-04T07:03:04;2.60;;;1.83;;
25615;SDS011;13482;48.234;13.006;2022-10-04T07:05:43;2.60;;;1.70;;
25615;SDS011;13482;48.234;13.006;2022-10-04T07:11:04;4.05;;;1.80;;
25615;SDS011;13482;48.234;13.006;2022-10-04T07:13:57;2.47;;;1.70;;
25615;SDS011;13482;48.234;13.006;2022-10-04T07:19:27;2.00;;;1.60;;
25615;SDS011;13482;48.234;13.006;2022-10-04T07:27:27;2.85;;;1.52;;
25615;SDS011;13482;48.234;13.006;2022-10-04T07:31:25;2.25;;;1.52;;
25615;SDS011;13482;48.234;13.006;2022-10-04T07:33:49;2.85;;;1.65;;
25615;SDS011;13482;48.234;13.006;2022-10-04T07:36:45;2.47;;;1.55;;
25615;SDS011;13482;48.234;13.006;2022-10-04T07:39:16;2.25;;;1.60;;
25615;SDS011;13482;48.234;13.006;2022-10-04T07:42:14;2.40;;;1.80;;
25615;SDS011;13482;48.234;13.006;2022-10-04T07:44:58;2.83;;;1.63;;
25615;SDS011;13482;48.234;13.006;2022-10-04T07:47:46;2.67;;;1.85;;
25615;SDS011;13482;48.234;13.006;2022-10-04T07:50:24;3.10;;;1.80;;
25615;SDS011;13482;48.234;13.006;2022-10-04T07:53:06;2.35;;;1.73;;
25615;SDS011;13482;48.234;13.006;2022-10-04T08:01:47;2.70;;;1.92;;
25615;SDS011;13482;48.234;13.006;2022-10-04T08:28:49;3.20;;;2.00;;
25615;SDS011;13482;48.234;13.006;2022-10-04T08:34:33;3.38;;;2.08;;
25615;SDS011;13482;48.234;13.006;2022-10-04T08:49:10;3.30;;;1.83;;
25615;SDS011;13482;48.234;13.006;2022-10-04T08:52:51;2.67;;;1.70;;
25615;SDS011;13482;48.234;13.006;2022-10-04T09:28:10;2.30;;;1.35;;
25615;SDS011;13482;48.234;13.006;2022-10-04T09:31:31;3.03;;;1.70;;
25615;SDS011;13482;48.234;13.006;2022-10-04T09:37:42;2.70;;;1.50;;
25615;SDS011;13482;48.234;13.006;2022-10-04T09:54:02;4.22;;;2.35;;
25615;SDS011;13482;48.234;13.006;2022-10-04T09:56:45;5.30;;;2.38;;
25615;SDS011;13482;48.234;13.006;2022-10-04T10:11:56;0.88;;;0.50;;
25615;SDS011;13482;48.234;13.006;2022-10-04T10:18:24;3.00;;;1.60;;
25615;SDS011;13482;48.234;13.006;2022-10-04T10:21:25;1.60;;;0.90;;
25615;SDS011;13482;48.234;13.006;2022-10-04T10:24:59;1.27;;;0.70;;
25615;SDS011;13482;48.234;13.006;2022-10-04T10:50:59;2.35;;;0.80;;
25615;SDS011;13482;48.234;13.006;2022-10-04T11:06:14;1.63;;;0.70;;
25615;SDS011;13482;48.234;13.006;2022-10-04T11:09:12;2.15;;;0.80;;
25615;SDS011;13482;48.234;13.006;2022-10-04T11:17:47;2.13;;;0.63;;
25615;SDS011;13482;48.234;13.006;2022-10-04T11:37:20;1.05;;;0.40;;
25615;SDS011;13482;48.234;13.006;2022-10-04T11:42:48;1.13;;;0.60;;
25615;SDS011;13482;48.234;13.006;2022-10-04T12:10:14;2.20;;;0.45;;
25615;SDS011;13482;48.234;13.006;2022-10-04T12:12:56;0.88;;;0.30;;
25615;SDS011;13482;48.234;13.006;2022-10-04T12:29:20;1.40;;;0.50;;
25615;SDS011;13482;48.234;13.006;2022-10-04T12:32:17;1.38;;;0.50;;
25615;SDS011;13482;48.234;13.006;2022-10-04T12:47:30;0.98;;;0.45;;
25615;SDS011;13482;48.234;13.006;2022-10-04T12:50:01;1.20;;;0.45;;
25615;SDS011;13482;48.234;13.006;2022-10-04T12:59:14;1.60;;;0.40;;
25615;SDS011;13482;48.234;13.006;2022-10-04T13:02:13;0.70;;;0.30;;
25615;SDS011;13482;48.234;13.006;2022-10-04T13:05:18;1.15;;;0.32;;
25615;SDS011;13482;48.234;13.006;2022-10-04T13:14:04;2.05;;;0.50;;
25615;SDS011;13482;48.234;13.006;2022-10-04T13:25:39;1.75;;;0.52;;
25615;SDS011;13482;48.234;13.006;2022-10-04T13:28:57;1.50;;;0.43;;
25615;SDS011;13482;48.234;13.006;2022-10-04T13:34:35;2.03;;;0.50;;
25615;SDS011;13482;48.234;13.006;2022-10-04T13:43:32;1.10;;;0.50;;
25615;SDS011;13482;48.234;13.006;2022-10-04T14:19:59;2.10;;;0.52;;
25615;SDS011;13482;48.234;13.006;2022-10-04T14:26:26;2.42;;;0.63;;
25615;SDS011;13482;48.234;13.006;2022-10-04T14:32:58;0.98;;;0.50;;
25615;SDS011;13482;48.234;13.006;2022-10-04T14:44:34;1.08;;;0.50;;
25615;SDS011;13482;48.234;13.006;2022-10-04T14:47:41;1.02;;;0.43;;
25615;SDS011;13482;48.234;13.006;2022-10-04T14:56:57;1.00;;;0.45;;
25615;SDS011;13482;48.234;13.006;2022-10-04T15:05:39;2.25;;;0.50;;
25615;SDS011;13482;48.234;13.006;2022-10-04T15:10:56;0.90;;;0.50;;
25615;SDS011;13482;48.234;13.006;2022-10-04T15:19:09;1.75;;;0.82;;
25615;SDS011;13482;48.234;13.006;2022-10-04T15:21:51;1.77;;;0.70;;
25615;SDS011;13482;48.234;13.006;2022-10-04T15:50:41;1.25;;;0.57;;
25615;SDS011;13482;48.234;13.006;2022-10-04T16:00:03;1.40;;;0.73;;
25615;SDS011;13482;48.234;13.006;2022-10-04T16:04:58;1.75;;;0.70;;
25615;SDS011;13482;48.234;13.006;2022-10-04T16:13:44;1.05;;;0.60;;
25615;SDS011;13482;48.234;13.006;2022-10-04T16:32:38;2.53;;;1.17;;
25615;SDS011;13482;48.234;13.006;2022-10-04T16:37:57;1.10;;;0.63;;
25615;SDS011;13482;48.234;13.006;2022-10-04T16:41:12;1.33;;;0.68;;
25615;SDS011;13482;48.234;13.006;2022-10-04T16:43:37;1.52;;;0.95;;
25615;SDS011;13482;48.234;13.006;2022-10-04T16:52:04;2.30;;;1.35;;
25615;SDS011;13482;48.234;13.006;2022-10-04T16:57:23;3.15;;;1.20;;
25615;SDS011;13482;48.234;13.006;2022-10-04T16:59:57;2.30;;;1.42;;
25615;SDS011;13482;48.234;13.006;2022-10-04T17:03:16;3.00;;;1.85;;
25615;SDS011;13482;48.234;13.006;2022-10-04T17:09:03;3.28;;;2.03;;
25615;SDS011;13482;48.234;13.006;2022-10-04T17:12:18;3.35;;;2.20;;
25615;SDS011;13482;48.234;13.006;2022-10-04T17:29:50;3.55;;;1.70;;
25615;SDS011;13482;48.234;13.006;2022-10-04T17:32:26;3.22;;;2.00;;
25615;SDS011;13482;48.234;13.006;2022-10-04T17:41:51;3.50;;;2.38;;
25615;SDS011;13482;48.234;13.006;2022-10-04T17:52:48;3.50;;;1.85;;
25615;SDS011;13482;48.234;13.006;2022-10-04T17:55:48;2.45;;;1.65;;
25615;SDS011;13482;48.234;13.006;2022-10-04T17:58:22;2.35;;;1.58;;
25615;SDS011;13482;48.234;13.006;2022-10-04T18:01:16;2.97;;;1.83;;
25615;SDS011;13482;48.234;13.006;2022-10-04T18:15:28;4.05;;;1.92;;
25615;SDS011;13482;48.234;13.006;2022-10-04T18:18:17;4.25;;;2.25;;
25615;SDS011;13482;48.234;13.006;2022-10-04T18:23:34;3.20;;;1.95;;
25615;SDS011;13482;48.234;13.006;2022-10-04T18:26:08;5.28;;;2.20;;
25615;SDS011;13482;48.234;13.006;2022-10-04T18:28:44;3.45;;;2.17;;
25615;SDS011;13482;48.234;13.006;2022-10-04T18:39:31;3.85;;;2.17;;
25615;SDS011;13482;48.234;13.006;2022-10-04T18:44:56;3.45;;;2.03;;
25615;SDS011;13482;48.234;13.006;2022-10-04T18:47:46;3.33;;;1.85;;
25615;SDS011;13482;48.234;13.006;2022-10-04T19:10:41;3.70;;;2.05;;
25615;SDS011;13482;48.234;13.006;2022-10-04T19:22:10;4.13;;;2.67;;
25615;SDS011;13482;48.234;13.006;2022-10-04T19:27:38;5.25;;;1.83;;
25615;SDS011;13482;48.234;13.006;2022-10-04T19:30:38;2.83;;;1.80;;
25615;SDS011;13482;48.234;13.006;2022-10-04T19:33:35;3.25;;;1.75;;
25615;SDS011;13482;48.234;13.006;2022-10-04T19:42:10;4.65;;;2.03;;
25615;SDS011;13482;48.234;13.006;2022-10-04T19:47:41;4.50;;;1.75;;
25615;SDS011;13482;48.234;13.006;2022-10-04T19:56:17;3.60;;;1.30;;
25615;SDS011;13482;48.234;13.006;2022-10-04T20:01:36;4.72;;;1.88;;
25615;SDS011;13482;48.234;13.006;2022-10-04T20:04:06;3.80;;;1.80;;
25615;SDS011;13482;48.234;13.006;2022-10-04T20:07:01;2.85;;;1.55;;
25615;SDS011;13482;48.234;13.006;2022-10-04T20:09:49;4.35;;;1.75;;
25615;SDS011;13482;48.234;13.006;2022-10-04T20:12:34;4.80;;;2.03;;
25615;SDS011;13482;48.234;13.006;2022-10-04T20:15:41;3.75;;;1.80;;
25615;SDS011;13482;48.234;13.006;2022-10-04T20:31:59;5.70;;;2.55;;
25615;SDS011;13482;48.234;13.006;2022-10-04T20:37:05;5.45;;;2.33;;
25615;SDS011;13482;48.234;13.006;2022-10-04T20:42:09;3.58;;;1.95;;
25615;SDS011;13482;48.234;13.006;2022-10-04T20:47:40;4.80;;;2.47;;
25615;SDS011;13482;48.234;13.006;2022-10-04T20:50:29;5.55;;;3.00;;
25615;SDS011;13482;48.234;13.006;2022-10-04T20:53:02;5.68;;;3.35;;
25615;SDS011;13482;48.234;13.006;2022-10-04T20:58:56;5.60;;;2.65;;
25615;SDS011;13482;48.234;13.006;2022-10-04T21:01:30;4.32;;;2.17;;
25615;SDS011;13482;48.234;13.006;2022-10-04T21:04:16;4.57;;;2.13;;
25615;SDS011;13482;48.234;13.006;2022-10-04T21:09:33;4.10;;;2.42;;
25615;SDS011;13482;48.234;13.006;2022-10-04T21:12:02;6.00;;;3.72;;
25615;SDS011;13482;48.234;13.006;2022-10-04T21:14:33;5.70;;;3.33;;
25615;SDS011;13482;48.234;13.006;2022-10-04T21:17:03;6.20;;;3.00;;
25615;SDS011;13482;48.234;13.006;2022-10-04T21:19:51;6.45;;;3.95;;
25615;SDS011;13482;48.234;13.006;2022-10-04T21:24:53;7.40;;;4.10;;
25615;SDS011;13482;48.234;13.006;2022-10-04T21:27:35;5.93;;;3.55;;
25615;SDS011;13482;48.234;13.006;2022-10-04T21:30:13;6.28;;;3.67;;
25615;SDS011;13482;48.234;13.006;2022-10-04T21:32:42;5.10;;;3.60;;
25615;SDS011;13482;48.234;13.006;2022-10-04T21:35:10;5.35;;;3.60;;
25615;SDS011;13482;48.234;13.006;2022-10-04T21:37:37;5.93;;;3.55;;
25615;SDS011;13482;48.234;13.006;2022-10-04T21:40:05;6.15;;;3.58;;
25615;SDS011;13482;48.234;13.006;2022-10-04T21:42:33;6.18;;;3.58;;
25615;SDS011;13482;48.234;13.006;2022-10-04T21:45:01;5.22;;;3.55;;
25615;SDS011;13482;48.234;13.006;2022-10-04T21:47:28;3.97;;;3.08;;
25615;SDS011;13482;48.234;13.006;2022-10-04T21:49:55;3.13;;;2.53;;
25615;SDS011;13482;48.234;13.006;2022-10-04T21:52:22;3.35;;;2.47;;
25615;SDS011;13482;48.234;13.006;2022-10-04T21:54:50;3.80;;;2.53;;
25615;SDS011;13482;48.234;13.006;2022-10-04T21:57:17;4.25;;;2.00;;
25615;SDS011;13482;48.234;13.006;2022-10-04T21:59:44;3.15;;;2.00;;
25615;SDS011;13482;48.234;13.006;2022-10-04T22:02:12;3.35;;;1.88;;
25615;SDS011;13482;48.234;13.006;2022-10-04T22:04:39;3.15;;;1.77;;
25615;SDS011;13482;48.234;13.006;2022-10-04T22:07:07;4.22;;;1.70;;
25615;SDS011;13482;48.234;13.006;2022-10-04T22:09:36;3.58;;;2.03;;
25615;SDS011;13482;48.234;13.006;2022-10-04T22:12:03;4.28;;;1.98;;
25615;SDS011;13482;48.234;13.006;2022-10-04T22:14:30;2.70;;;1.83;;
25615;SDS011;13482;48.234;13.006;2022-10-04T22:16:57;3.20;;;2.25;;
25615;SDS011;13482;48.234;13.006;2022-10-04T22:19:24;5.70;;;2.00;;
25615;SDS011;13482;48.234;13.006;2022-10-04T22:21:51;3.97;;;2.40;;
25615;SDS011;13482;48.234;13.006;2022-10-04T22:24:19;3.58;;;2.10;;
25615;SDS011;13482;48.234;13.006;2022-10-04T22:26:46;5.43;;;2.20;;
25615;SDS011;13482;48.234;13.006;2022-10-04T22:29:15;3.10;;;1.80;;
25615;SDS011;13482;48.234;13.006;2022-10-04T22:31:50;3.72;;;1.70;;
25615;SDS011;13482;48.234;13.006;2022-10-04T22:34:19;2.35;;;1.60;;
25615;SDS011;13482;48.234;13.006;2022-10-04T22:36:48;3.28;;;1.80;;
25615;SDS011;13482;48.234;13.006;2022-10-04T22:39:19;3.15;;;1.58;;
25615;SDS011;13482;48.234;13.006;2022-10-04T22:41:48;2.50;;;1.45;;
25615;SDS011;13482;48.234;13.006;2022-10-04T22:44:27;3.00;;;1.75;;
25615;SDS011;13482;48.234;13.006;2022-10-04T22:47:03;2.13;;;1.25;;
25615;SDS011;13482;48.234;13.006;2022-10-04T22:49:37;1.88;;;1.33;;
25615;SDS011;13482;48.234;13.006;2022-10-04T22:52:13;2.72;;;1.60;;
25615;SDS011;13482;48.234;13.006;2022-10-04T22:54:43;3.80;;;1.60;;
25615;SDS011;13482;48.234;13.006;2022-10-04T22:57:18;2.72;;;1.42;;
25615;SDS011;13482;48.234;13.006;2022-10-04T22:59:47;3.53;;;1.80;;
25615;SDS011;13482;48.234;13.006;2022-10-04T23:02:18;2.85;;;1.55;;
25615;SDS011;13482;48.234;13.006;2022-10-04T23:07:44;2.75;;;1.30;;
25615;SDS011;13482;48.234;13.006;2022-10-04T23:10:14;3.00;;;1.52;;
25615;SDS011;13482;48.234;13.006;2022-10-04T23:12:47;2.33;;;1.55;;
25615;SDS011;13482;48.234;13.006;2022-10-04T23:15:16;2.50;;;1.50;;
25615;SDS011;13482;48.234;13.006;2022-10-04T23:17:50;3.03;;;1.52;;
25615;SDS011;13482;48.234;13.006;2022-10-04T23:20:20;3.42;;;1.88;;
25615;SDS011;13482;48.234;13.006;2022-10-04T23:22:49;3.15;;;1.90;;
25615;SDS011;13482;48.234;13.006;2022-10-04T23:25:25;3.72;;;1.77;;
25615;SDS011;13482;48.234;13.006;2022-10-04T23:27:55;4.03;;;1.52;;
25615;SDS011;13482;48.234;13.006;2022-10-04T23:30:27;3.95;;;1.52;;
25615;SDS011;13482;48.234;13.006;2022-10-04T23:32:55;2.78;;;1.48;;
25615;SDS011;13482;48.234;13.006;2022-10-04T23:35:29;3.00;;;1.50;;
25615;SDS011;13482;48.234;13.006;2022-10-04T23:37:58;2.13;;;1.30;;
25615;SDS011;13482;48.234;13.006;2022-10-04T23:40:28;2.72;;;1.45;;
25615;SDS011;13482;48.234;13.006;2022-10-04T23:42:56;3.25;;;1.45;;
25615;SDS011;13482;48.234;13.006;2022-10-04T23:45:25;1.92;;;1.17;;
25615;SDS011;13482;48.234;13.006;2022-10-04T23:47:55;2.63;;;1.50;;
25615;SDS011;13482;48.234;13.006;2022-10-04T23:50:26;2.55;;;1.20;;
25615;SDS011;13482;48.234;13.006;2022-10-04T23:52:59;2.03;;;1.35;;
25615;SDS011;13482;48.234;13.006;2022-10-04T23:55:34;2.65;;;1.17;;
25615;SDS011;13482;48.234;13.006;2022-10-04T23:58:07;3.13;;;1.30;;
